Time;durP1;ratioP1;P1;durP2;ratioP2;P2;SDS_P1;SDS_P2;PMS_P1;PMS_P2;Temp;Humidity;BMP_temperature;BMP_pressure;BME280_temperature;BME280_humidity;BME280_pressure;Samples;Min_cycle;Max_cycle;Signal;HPM_P1;HPM_P2
2021/12/08 00:00:23;;;;;;;7.93;7.53;;;7.70;81.20;;;;;;5029698;28;20425;-81
2021/12/08 00:02:49;;;;;;;8.10;7.70;;;7.70;81.20;;;;;;5015392;28;20048;-80
2021/12/08 00:05:16;;;;;;;8.40;8.00;;;7.70;81.30;;;;;;5033343;28;20292;-80
2021/12/08 00:07:43;;;;;;;7.90;7.50;;;7.70;81.30;;;;;;5046646;28;20389;-81
2021/12/08 00:15:23;;;;;;;7.03;6.72;;;7.60;81.20;;;;;;5047596;28;20033;-80
2021/12/08 00:17:49;;;;;;;7.13;6.83;;;7.60;81.20;;;;;;5028891;28;20033;-80
2021/12/08 00:20:15;;;;;;;7.60;7.30;;;7.60;81.20;;;;;;5032576;28;20033;-80
2021/12/08 00:22:41;;;;;;;6.60;6.30;;;7.50;81.20;;;;;;5029974;28;20048;-80
2021/12/08 00:25:07;;;;;;;7.83;7.47;;;7.60;81.20;;;;;;5048856;28;20036;-80
2021/12/08 00:27:33;;;;;;;7.85;7.45;;;7.60;81.20;;;;;;5027998;28;20482;-81
2021/12/08 00:30:00;;;;;;;7.60;7.30;;;7.50;81.10;;;;;;5043362;28;20030;-80
2021/12/08 00:32:29;;;;;;;7.70;7.40;;;7.50;81.10;;;;;;5046033;28;20030;-81
2021/12/08 00:34:55;;;;;;;7.33;7.03;;;7.50;81.10;;;;;;5042412;28;20033;-80
2021/12/08 00:37:22;;;;;;;8.17;7.77;;;7.50;81.20;;;;;;5038109;28;20486;-80
2021/12/08 00:39:48;;;;;;;7.30;7.00;;;7.50;81.10;;;;;;5044314;28;20040;-80
2021/12/08 00:42:15;;;;;;;8.10;7.70;;;7.50;81.10;;;;;;5045638;28;20037;-80
2021/12/08 00:44:41;;;;;;;7.20;6.90;;;7.50;81.10;;;;;;5046437;28;20033;-80
2021/12/08 00:47:07;;;;;;;7.10;6.80;;;7.50;81.10;;;;;;5037643;28;20038;-81
2021/12/08 00:49:33;;;;;;;7.27;6.97;;;7.50;81.10;;;;;;5028881;28;20033;-80
2021/12/08 00:51:59;;;;;;;7.37;7.07;;;7.50;81.10;;;;;;5042995;28;20413;-81
2021/12/08 00:54:25;;;;;;;7.50;7.20;;;7.50;81.10;;;;;;5042900;28;20041;-81
2021/12/08 00:56:51;;;;;;;25.07;8.00;;;7.50;81.10;;;;;;5046825;28;20048;-80
2021/12/08 00:59:17;;;;;;;7.30;7.00;;;7.50;81.00;;;;;;5041313;28;20056;-80
2021/12/08 01:01:43;;;;;;;6.90;6.60;;;7.50;81.00;;;;;;5039392;28;20037;-80
2021/12/08 01:04:09;;;;;;;8.03;7.63;;;7.50;81.80;;;;;;5037487;28;20034;-80
2021/12/08 01:06:36;;;;;;;7.40;7.10;;;7.50;81.00;;;;;;5040660;28;20037;-80
2021/12/08 01:09:02;;;;;;;7.50;7.20;;;7.50;81.00;;;;;;5043630;28;20490;-80
2021/12/08 01:11:28;;;;;;;7.33;7.03;;;7.40;80.90;;;;;;5032465;28;20029;-81
2021/12/08 01:13:54;;;;;;;7.87;7.47;;;7.50;80.90;;;;;;5045600;28;20041;-81
2021/12/08 01:16:20;;;;;;;7.57;7.27;;;7.50;80.80;;;;;;5034451;28;20494;-80
2021/12/08 01:18:46;;;;;;;7.75;7.45;;;7.50;80.80;;;;;;5048515;28;20025;-80
2021/12/08 01:21:13;;;;;;;7.30;7.00;;;7.50;80.80;;;;;;5049247;28;20490;-80
2021/12/08 01:23:40;;;;;;;7.60;7.30;;;7.50;80.80;;;;;;5046703;28;20039;-80
2021/12/08 01:26:07;;;;;;;7.50;7.20;;;7.50;80.80;;;;;;5035365;28;20029;-81
2021/12/08 01:28:33;;;;;;;7.87;7.47;;;7.50;80.80;;;;;;5048257;28;20025;-80
2021/12/08 01:31:01;;;;;;;7.23;6.93;;;7.50;80.70;;;;;;5052672;28;20374;-81
2021/12/08 01:33:29;;;;;;;8.73;7.87;;;7.50;80.70;;;;;;5050852;28;20021;-81
2021/12/08 01:35:55;;;;;;;7.87;7.47;;;7.50;80.80;;;;;;5018236;28;20037;-80
2021/12/08 01:38:22;;;;;;;7.90;7.50;;;7.50;80.80;;;;;;5033642;28;20040;-81
2021/12/08 01:40:48;;;;;;;7.88;7.47;;;7.50;80.80;;;;;;5033497;28;20036;-80
2021/12/08 01:43:26;;;;;;;7.63;7.33;;;7.50;80.70;;;;;;5033326;28;20044;-81
2021/12/08 01:46:03;;;;;;;7.60;7.30;;;7.50;80.70;;;;;;5042052;28;20402;-81
2021/12/08 01:48:35;;;;;;;7.30;7.00;;;7.50;80.70;;;;;;5041785;28;20494;-81
2021/12/08 01:51:13;;;;;;;7.40;7.10;;;7.50;80.70;;;;;;5037310;28;20040;-81
2021/12/08 01:53:40;;;;;;;7.27;6.97;;;7.50;80.70;;;;;;5032815;28;20370;-80
2021/12/08 01:56:06;;;;;;;7.47;7.17;;;7.50;80.70;;;;;;5018035;28;20046;-81
2021/12/08 01:58:32;;;;;;;7.00;6.70;;;7.50;80.70;;;;;;5050434;28;20040;-81
2021/12/08 02:01:07;;;;;;;7.40;7.10;;;7.50;80.80;;;;;;5052208;28;20041;-80
2021/12/08 02:03:33;;;;;;;7.50;7.20;;;7.40;80.70;;;;;;5049267;28;20045;-80
2021/12/08 02:05:59;;;;;;;7.33;7.03;;;7.50;80.80;;;;;;5050095;28;20026;-81
2021/12/08 02:08:26;;;;;;;7.70;7.40;;;7.40;80.70;;;;;;5050576;28;20033;-81
2021/12/08 02:10:53;;;;;;;7.53;7.23;;;7.40;80.70;;;;;;5049491;28;20021;-81
2021/12/08 02:13:19;;;;;;;7.90;7.50;;;7.40;80.70;;;;;;5045852;28;20143;-81
2021/12/08 02:15:45;;;;;;;7.20;6.90;;;7.40;80.70;;;;;;5030912;28;20040;-81
2021/12/08 02:18:13;;;;;;;7.37;7.07;;;7.40;80.70;;;;;;5051142;28;20029;-81
2021/12/08 02:20:40;;;;;;;6.73;6.43;;;7.40;80.70;;;;;;5040087;28;20021;-81
2021/12/08 02:23:06;;;;;;;7.40;7.10;;;7.40;80.80;;;;;;5017313;28;20060;-81
2021/12/08 02:25:33;;;;;;;7.20;6.90;;;7.40;80.80;;;;;;5047918;28;20049;-81
2021/12/08 02:27:59;;;;;;;7.20;6.90;;;7.30;80.70;;;;;;5029138;28;20037;-81
2021/12/08 02:46:50;;;;;;;6.60;6.30;;;7.20;80.70;;;;;;5038401;28;20050;-80
2021/12/08 02:49:17;;;;;;;7.87;7.47;;;7.20;80.80;;;;;;5039675;28;20045;-80
2021/12/08 02:51:44;;;;;;;7.75;7.35;;;7.20;80.80;;;;;;5041406;28;20040;-80
2021/12/08 02:54:10;;;;;;;7.50;7.20;;;7.20;80.80;;;;;;5047415;28;20034;-80
2021/12/08 02:56:36;;;;;;;7.77;7.37;;;7.20;80.80;;;;;;5037618;28;20410;-80
2021/12/08 02:59:02;;;;;;;7.07;6.77;;;7.20;80.80;;;;;;5049809;28;20478;-80
2021/12/08 03:01:28;;;;;;;8.10;7.70;;;7.20;80.80;;;;;;5032863;28;20044;-80
2021/12/08 03:03:54;;;;;;;7.10;6.80;;;7.20;80.80;;;;;;5027604;28;20045;-80
2021/12/08 03:06:21;;;;;;;7.47;7.07;;;7.30;80.80;;;;;;5039616;28;20033;-80
2021/12/08 03:08:47;;;;;;;7.07;6.77;;;7.30;80.80;;;;;;5040483;28;20136;-80
2021/12/08 03:11:13;;;;;;;7.53;7.03;;;7.20;80.70;;;;;;5028627;28;20044;-80
2021/12/08 03:13:42;;;;;;;7.47;7.17;;;7.20;80.70;;;;;;5047510;28;20398;-80
2021/12/08 03:16:09;;;;;;;7.27;6.97;;;7.30;80.80;;;;;;5035453;28;20029;-80
2021/12/08 03:18:37;;;;;;;6.87;6.57;;;7.20;80.70;;;;;;5046441;28;20405;-80
2021/12/08 03:21:05;;;;;;;6.97;6.67;;;7.30;80.80;;;;;;5044866;28;20025;-80
2021/12/08 03:26:25;;;;;;;7.70;7.40;;;7.30;80.80;;;;;;4992485;28;20038;-79
2021/12/08 03:28:59;;;;;;;8.03;7.57;;;7.30;80.70;;;;;;5008154;28;20057;-79
2021/12/08 03:31:31;;;;;;;7.40;7.10;;;7.30;80.60;;;;;;4974725;28;20049;-79
2021/12/08 03:33:57;;;;;;;8.45;8.05;;;7.30;80.60;;;;;;4973865;28;20049;-78
2021/12/08 03:36:23;;;;;;;7.60;7.30;;;7.40;80.60;;;;;;4989053;28;20482;-78
2021/12/08 03:38:49;;;;;;;8.23;7.83;;;7.40;80.50;;;;;;4977311;28;20048;-79
2021/12/08 03:41:15;;;;;;;7.57;7.28;;;7.40;80.50;;;;;;4991755;28;20050;-79
2021/12/08 03:43:41;;;;;;;7.40;7.10;;;7.50;80.60;;;;;;4992738;28;20189;-79
2021/12/08 03:46:12;;;;;;;7.80;7.40;;;7.50;80.50;;;;;;4990244;28;20030;-79
2021/12/08 03:48:47;;;;;;;7.47;7.15;;;7.40;80.40;;;;;;4977539;28;20173;-79
2021/12/08 03:51:14;;;;;;;8.10;7.70;;;7.50;80.40;;;;;;4976660;28;20153;-79
2021/12/08 03:53:40;;;;;;;8.37;7.17;;;7.50;80.40;;;;;;4974055;28;20041;-79
2021/12/08 03:56:06;;;;;;;7.13;6.83;;;7.50;80.40;;;;;;4977434;28;20056;-79
2021/12/08 03:58:32;;;;;;;7.07;6.77;;;7.50;80.40;;;;;;4991851;28;20052;-79
2021/12/08 04:00:59;;;;;;;7.45;7.05;;;7.50;80.40;;;;;;4989830;28;20041;-79
2021/12/08 04:03:26;;;;;;;7.40;7.00;;;7.50;80.40;;;;;;5024327;28;20068;-79
2021/12/08 04:05:56;;;;;;;7.40;7.10;;;7.50;80.40;;;;;;5017088;28;20040;-79
2021/12/08 04:08:32;;;;;;;10.50;7.97;;;7.50;80.40;;;;;;5042217;28;20040;-79
2021/12/08 04:11:03;;;;;;;8.13;7.67;;;7.40;80.40;;;;;;5032495;28;20036;-79
2021/12/08 04:13:31;;;;;;;;;;;7.50;80.60;;;;;;5031793;28;20048;-79
2021/12/08 04:15:57;;;;;;;7.47;7.17;;;7.40;80.50;;;;;;5049177;28;19917;-79
2021/12/08 04:18:23;;;;;;;14.33;7.67;;;7.40;80.50;;;;;;5026720;28;20048;-80
2021/12/08 04:20:53;;;;;;;7.47;7.17;;;7.40;80.50;;;;;;5044981;28;20021;-79
2021/12/08 04:23:20;;;;;;;23.73;8.00;;;7.30;80.60;;;;;;5016553;28;20053;-80
2021/12/08 04:25:49;;;;;;;7.43;7.13;;;7.30;80.60;;;;;;5046828;28;20099;-80
2021/12/08 04:28:18;;;;;;;6.63;6.33;;;7.30;80.60;;;;;;5047702;28;20029;-80
2021/12/08 04:31:00;;;;;;;7.30;7.00;;;7.30;80.60;;;;;;5039930;28;20029;-80
2021/12/08 04:33:26;;;;;;;7.30;7.00;;;7.30;80.70;;;;;;5035595;28;20037;-80
2021/12/08 04:35:53;;;;;;;7.50;7.20;;;7.30;80.80;;;;;;5035642;28;20036;-80
2021/12/08 04:38:25;;;;;;;8.10;7.60;;;7.20;80.70;;;;;;5036971;28;20044;-80
2021/12/08 04:41:04;;;;;;;7.30;7.00;;;7.20;80.80;;;;;;5035973;28;20029;-80
2021/12/08 04:43:45;;;;;;;8.90;7.13;;;7.20;80.80;;;;;;5033924;28;20056;-80
2021/12/08 04:49:17;;;;;;;7.47;7.17;;;7.10;80.80;;;;;;5045096;28;20048;-80
2021/12/08 05:08:20;;;;;;;6.70;6.40;;;6.90;80.80;;;;;;4996063;28;20053;-80
2021/12/08 05:10:47;;;;;;;6.97;6.67;;;7.00;80.90;;;;;;4977597;28;20042;-80
2021/12/08 05:13:14;;;;;;;7.23;6.93;;;6.90;80.90;;;;;;5008027;28;20030;-80
2021/12/08 05:15:58;;;;;;;7.50;7.10;;;6.90;80.90;;;;;;5008369;28;20133;-80
2021/12/08 05:18:27;;;;;;;7.73;7.33;;;6.90;80.90;;;;;;5008284;28;20526;-80
2021/12/08 05:21:27;;;;;;;7.73;7.40;;;6.90;80.90;;;;;;4988316;28;20034;-80
2021/12/08 05:24:15;;;;;;;7.73;7.37;;;7.00;80.90;;;;;;4985561;28;20564;-80
2021/12/08 05:26:56;;;;;;;8.83;8.43;;;7.00;80.80;;;;;;4991799;28;20034;-80
2021/12/08 05:29:25;;;;;;;;;;;6.90;80.70;;;;;;5032600;28;20051;-80
2021/12/08 05:31:51;;;;;;;8.10;7.70;;;7.00;80.80;;;;;;5061989;28;19909;-80
2021/12/08 05:34:18;;;;;;;7.17;6.87;;;7.00;80.70;;;;;;5020829;28;20390;-80
2021/12/08 05:36:44;;;;;;;7.20;6.90;;;7.00;80.70;;;;;;5048912;28;20040;-80
2021/12/08 05:39:16;;;;;;;8.50;8.10;;;6.90;80.70;;;;;;5027953;28;20052;-80
2021/12/08 05:41:43;;;;;;;8.70;8.30;;;7.00;80.80;;;;;;5045826;28;20409;-80
2021/12/08 05:44:09;;;;;;;8.63;8.23;;;7.00;80.80;;;;;;5014759;28;20046;-80
2021/12/08 05:46:36;;;;;;;8.33;7.93;;;7.00;80.80;;;;;;5034356;28;20474;-80
2021/12/08 05:49:03;;;;;;;9.00;8.60;;;7.00;80.80;;;;;;5034320;28;20510;-80
2021/12/08 05:51:31;;;;;;;9.20;8.80;;;7.00;80.70;;;;;;5042546;28;20041;-80
2021/12/08 05:54:00;;;;;;;7.13;6.83;;;7.00;80.70;;;;;;5013538;28;20049;-80
2021/12/08 05:56:26;;;;;;;8.23;7.83;;;7.00;80.70;;;;;;5031444;28;20029;-80
2021/12/08 05:58:53;;;;;;;9.83;9.40;;;7.00;80.60;;;;;;5013652;28;20045;-80
2021/12/08 06:01:27;;;;;;;7.30;7.00;;;7.00;80.70;;;;;;5032252;28;20056;-79
2021/12/08 06:03:53;;;;;;;7.10;6.80;;;7.00;80.80;;;;;;5023196;28;20053;-80
2021/12/08 06:06:21;;;;;;;7.67;7.37;;;7.00;80.80;;;;;;5039205;28;20037;-80
2021/12/08 06:08:47;;;;;;;7.03;6.73;;;7.00;80.80;;;;;;5033954;28;20040;-80
2021/12/08 06:11:14;;;;;;;8.03;7.63;;;7.00;80.80;;;;;;5046821;28;20029;-80
2021/12/08 06:13:41;;;;;;;7.40;7.10;;;7.00;80.90;;;;;;5035543;28;20446;-78
2021/12/08 06:16:07;;;;;;;6.40;6.10;;;6.90;80.80;;;;;;5055248;28;20033;-77
2021/12/08 06:18:38;;;;;;;7.03;6.73;;;6.90;80.80;;;;;;5058869;28;20025;-78
2021/12/08 06:21:10;;;;;;;6.90;6.60;;;6.90;80.90;;;;;;5035154;28;20112;-79
2021/12/08 06:23:37;;;;;;;7.23;6.93;;;6.90;80.90;;;;;;5058415;28;20038;-78
2021/12/08 06:26:03;;;;;;;8.87;7.70;;;6.90;80.90;;;;;;5030621;28;20040;-80
2021/12/08 06:28:29;;;;;;;7.00;6.70;;;6.90;81.00;;;;;;5036085;28;20045;-79
2021/12/08 06:30:56;;;;;;;8.00;7.60;;;6.90;81.00;;;;;;5057377;28;20036;-79
2021/12/08 06:33:22;;;;;;;7.50;7.10;;;6.90;81.00;;;;;;5058382;28;20028;-79
2021/12/08 06:35:57;;;;;;;7.50;7.20;;;6.90;81.00;;;;;;5031507;28;20056;-80
2021/12/08 06:38:23;;;;;;;7.43;7.03;;;6.90;80.90;;;;;;5034236;28;20049;-78
2021/12/08 06:40:56;;;;;;;7.30;7.00;;;6.80;80.90;;;;;;5044562;28;20040;-78
2021/12/08 06:43:27;;;;;;;7.60;7.30;;;6.80;80.90;;;;;;5047520;28;20025;-79
2021/12/08 06:45:55;;;;;;;7.93;7.53;;;6.80;80.90;;;;;;5028200;28;20495;-79
2021/12/08 06:48:25;;;;;;;7.20;6.90;;;6.80;81.00;;;;;;5018109;28;20493;-78
2021/12/08 06:50:58;;;;;;;7.23;6.93;;;6.80;81.00;;;;;;5031312;28;20032;-86
2021/12/08 06:53:25;;;;;;;7.33;7.03;;;6.70;81.10;;;;;;5049195;28;20037;-93
2021/12/08 06:55:58;;;;;;;7.50;7.10;;;6.70;81.00;;;;;;5030065;28;20033;-87
2021/12/08 06:58:25;;;;;;;7.10;6.80;;;6.70;81.10;;;;;;5050849;28;20029;-84
2021/12/08 07:01:18;;;;;;;21.60;7.00;;;6.60;81.10;;;;;;5051371;28;20028;-86
2021/12/08 07:09:03;;;;;;;7.03;6.73;;;6.60;81.20;;;;;;5037369;28;20449;-84
2021/12/08 07:11:29;;;;;;;8.13;7.73;;;6.50;81.20;;;;;;5032027;28;20029;-86
2021/12/08 07:13:55;;;;;;;8.00;7.60;;;6.50;81.30;;;;;;5031821;28;20029;-86
2021/12/08 07:16:36;;;;;;;7.50;7.10;;;6.40;81.30;;;;;;5020214;28;20032;-87
2021/12/08 07:19:11;;;;;;;9.43;8.98;;;6.40;81.40;;;;;;5042083;28;20536;-85
2021/12/08 07:21:41;;;;;;;7.87;7.47;;;6.40;81.60;;;;;;5040831;28;20037;-83
2021/12/08 07:24:10;;;;;;;6.47;6.17;;;6.50;81.50;;;;;;5011884;28;20052;-84
2021/12/08 07:26:38;;;;;;;6.83;6.53;;;6.50;81.40;;;;;;5047025;28;20060;-83
2021/12/08 07:29:05;;;;;;;10.43;9.93;;;6.40;81.40;;;;;;5030971;28;20512;-86
2021/12/08 07:31:37;;;;;;;6.73;6.43;;;6.40;81.30;;;;;;5049789;28;20037;-84
2021/12/08 07:34:06;;;;;;;7.13;6.83;;;6.40;81.40;;;;;;5051476;28;20048;-83
2021/12/08 07:36:38;;;;;;;6.93;6.63;;;6.40;81.40;;;;;;5015645;28;20052;-84
2021/12/08 07:39:07;;;;;;;7.13;6.83;;;6.40;81.40;;;;;;5050788;28;20033;-84
2021/12/08 07:41:36;;;;;;;7.57;7.20;;;6.30;81.40;;;;;;5033067;28;20033;-85
2021/12/08 07:44:05;;;;;;;6.17;5.87;;;6.30;81.40;;;;;;5033321;28;20056;-84
2021/12/08 07:46:38;;;;;;;5.80;5.50;;;6.30;81.30;;;;;;5028172;28;20044;-84
2021/12/08 07:49:10;;;;;;;6.40;6.10;;;6.30;81.40;;;;;;5050006;28;20044;-84
2021/12/08 07:51:39;;;;;;;5.87;5.57;;;6.30;81.30;;;;;;5044679;28;20028;-81
2021/12/08 07:54:06;;;;;;;6.03;5.73;;;6.30;81.30;;;;;;5044411;28;20029;-84
2021/12/08 07:56:33;;;;;;;5.80;5.50;;;6.40;81.30;;;;;;5046762;28;20029;-86
2021/12/08 07:59:02;;;;;;;5.83;5.53;;;6.40;81.30;;;;;;5049933;28;20036;-90
2021/12/08 08:01:34;;;;;;;6.10;5.80;;;6.40;81.30;;;;;;5048855;28;20044;-84
2021/12/08 08:04:02;;;;;;;6.20;5.90;;;6.40;81.20;;;;;;5017464;28;20052;-85
2021/12/08 08:06:31;;;;;;;6.17;5.87;;;6.40;81.20;;;;;;5049509;28;20029;-85
2021/12/08 08:08:58;;;;;;;6.10;5.80;;;6.50;81.20;;;;;;5043495;28;20028;-84
2021/12/08 08:11:30;;;;;;;5.97;5.67;;;6.50;81.10;;;;;;5049869;28;20367;-84
2021/12/08 08:13:56;;;;;;;6.00;5.70;;;6.50;81.10;;;;;;5036334;28;20501;-86
2021/12/08 08:16:26;;;;;;;6.07;5.77;;;6.50;81.00;;;;;;5028548;28;20041;-84
2021/12/08 08:18:58;;;;;;;6.93;6.53;;;6.60;81.00;;;;;;5046644;28;20033;-85
2021/12/08 08:21:28;;;;;;;5.27;5.07;;;6.60;81.00;;;;;;5047016;28;20050;-84
2021/12/08 08:23:54;;;;;;;6.20;5.90;;;6.70;81.00;;;;;;5047006;28;20045;-83
2021/12/08 08:26:20;;;;;;;6.30;6.00;;;6.60;80.80;;;;;;5049271;28;20401;-83
2021/12/08 08:28:50;;;;;;;6.00;5.70;;;6.70;80.80;;;;;;5050096;28;20067;-83
2021/12/08 08:31:25;;;;;;;6.27;5.97;;;6.70;80.90;;;;;;5050031;28;20037;-82
2021/12/08 08:33:52;;;;;;;6.53;6.23;;;6.80;80.90;;;;;;5048977;28;20048;-82
2021/12/08 08:36:23;;;;;;;7.30;6.93;;;6.80;80.90;;;;;;5029953;28;20036;-81
2021/12/08 08:38:57;;;;;;;;;;;6.90;80.80;;;;;;5033080;28;20025;-82
2021/12/08 08:41:38;;;;;;;6.70;6.20;;;7.00;80.80;;;;;;5041234;28;20334;-83
2021/12/08 08:44:09;;;;;;;6.07;5.77;;;7.00;80.50;;;;;;5017655;28;20036;-83
2021/12/08 08:46:38;;;;;;;6.30;6.00;;;6.90;80.50;;;;;;5032963;28;20041;-90
2021/12/08 08:49:08;;;;;;;6.13;5.83;;;6.90;80.60;;;;;;5050141;28;20041;-85
2021/12/08 08:52:00;;;;;;;6.57;6.27;;;6.90;80.70;;;;;;5037538;28;20036;-81
2021/12/08 08:54:30;;;;;;;6.80;6.50;;;6.90;80.70;;;;;;5036095;28;20048;-82
2021/12/08 08:57:08;;;;;;;6.35;6.05;;;6.90;80.70;;;;;;5041079;28;20030;-85
2021/12/08 08:59:42;;;;;;;6.80;6.40;;;6.90;80.60;;;;;;5047712;28;20021;-82
2021/12/08 09:02:10;;;;;;;6.83;6.40;;;7.00;80.80;;;;;;5046286;28;20041;-88
2021/12/08 09:04:38;;;;;;;6.60;6.30;;;7.10;80.70;;;;;;5030662;28;20041;-83
2021/12/08 09:07:07;;;;;;;6.07;5.77;;;7.10;80.50;;;;;;5047248;28;20021;-86
2021/12/08 09:09:36;;;;;;;6.23;5.93;;;7.10;80.50;;;;;;5040108;28;20040;-87
2021/12/08 09:12:02;;;;;;;6.27;5.97;;;7.10;80.50;;;;;;5043807;28;20028;-88
2021/12/08 09:14:37;;;;;;;7.20;6.90;;;7.10;80.50;;;;;;5048402;28;20484;-86
2021/12/08 09:17:08;;;;;;;8.00;7.60;;;7.10;80.50;;;;;;5013926;28;20030;-88
2021/12/08 09:19:41;;;;;;;7.72;7.38;;;7.10;80.50;;;;;;5034892;28;20025;-86
2021/12/08 09:22:49;;;;;;;8.70;8.10;;;7.10;80.60;;;;;;5046951;28;20029;-86
2021/12/08 09:25:21;;;;;;;13.30;12.70;;;7.10;80.70;;;;;;4969509;28;20055;-88
2021/12/08 09:27:51;;;;;;;10.10;9.60;;;7.10;80.70;;;;;;4967916;28;20039;-87
2021/12/08 09:30:23;;;;;;;9.90;9.43;;;7.10;80.70;;;;;;4968947;28;20054;-86
2021/12/08 09:32:55;;;;;;;7.03;6.63;;;7.10;80.70;;;;;;4951775;28;20031;-86
2021/12/08 09:35:25;;;;;;;8.00;7.57;;;7.10;80.60;;;;;;4955930;28;20496;-86
2021/12/08 09:37:54;;;;;;;7.37;7.07;;;7.20;80.60;;;;;;4954557;28;20039;-86
2021/12/08 09:40:33;;;;;;;7.40;7.00;;;7.20;80.60;;;;;;4970331;28;20523;-86
2021/12/08 09:43:22;;;;;;;7.50;7.00;;;7.30;80.50;;;;;;4966857;28;20038;-87
2021/12/08 09:46:01;;;;;;;8.40;8.00;;;7.40;80.50;;;;;;4951859;28;20404;-86
2021/12/08 09:48:29;;;;;;;8.73;8.33;;;7.40;80.30;;;;;;4954998;28;20047;-86
2021/12/08 09:50:56;;;;;;;8.40;7.90;;;7.50;80.30;;;;;;4974619;28;20023;-86
2021/12/08 09:53:23;;;;;;;7.90;7.50;;;7.50;80.20;;;;;;4973661;28;20045;-87
2021/12/08 09:55:50;;;;;;;7.60;7.30;;;7.60;80.10;;;;;;4986827;28;20037;-86
2021/12/08 09:58:17;;;;;;;8.23;7.82;;;7.60;80.10;;;;;;5054225;28;20025;-87
2021/12/08 10:00:43;;;;;;;8.68;8.18;;;7.60;80.10;;;;;;5053407;28;20037;-87
2021/12/08 10:03:12;;;;;;;8.37;7.97;;;7.70;80.10;;;;;;5037372;28;20040;-87
2021/12/08 10:05:41;;;;;;;8.40;8.00;;;7.80;80.00;;;;;;5054071;28;20041;-86
2021/12/08 10:08:08;;;;;;;7.75;7.43;;;8.00;79.80;;;;;;5054102;28;20048;-86
2021/12/08 10:10:34;;;;;;;8.00;7.60;;;8.20;79.30;;;;;;5037587;28;20041;-86
2021/12/08 10:13:00;;;;;;;8.63;8.23;;;8.30;79.00;;;;;;5053793;28;20044;-87
2021/12/08 10:15:26;;;;;;;8.60;8.20;;;8.40;78.80;;;;;;5053349;28;20033;-86
2021/12/08 10:17:54;;;;;;;10.23;9.73;;;8.50;78.70;;;;;;5033451;28;20112;-87
2021/12/08 10:20:32;;;;;;;8.93;8.52;;;8.80;78.20;;;;;;5053760;28;20036;-87
2021/12/08 10:23:15;;;;;;;9.38;8.98;;;9.20;77.60;;;;;;5053957;28;20486;-85
2021/12/08 10:25:44;;;;;;;8.00;7.60;;;9.50;76.70;;;;;;5070039;28;20033;-86
2021/12/08 10:28:25;;;;;;;8.25;7.85;;;9.70;76.20;;;;;;5020603;28;20048;-87
2021/12/08 10:30:53;;;;;;;8.70;8.30;;;9.70;76.00;;;;;;5036018;28;20473;-86
2021/12/08 10:33:37;;;;;;;8.75;8.35;;;9.60;76.20;;;;;;5054510;28;20367;-86
2021/12/08 10:36:17;;;;;;;9.27;8.77;;;9.60;76.70;;;;;;5053349;28;20509;-86
2021/12/08 10:38:43;;;;;;;9.90;9.30;;;9.50;77.20;;;;;;5053662;28;20052;-86
2021/12/08 10:41:09;;;;;;;9.05;8.65;;;9.50;77.60;;;;;;5053123;28;20021;-87
2021/12/08 10:43:35;;;;;;;10.10;9.35;;;9.50;77.60;;;;;;5053940;28;20028;-88
2021/12/08 10:46:10;;;;;;;9.60;9.20;;;9.60;77.50;;;;;;5035519;28;20045;-87
2021/12/08 10:48:42;;;;;;;9.77;9.35;;;9.70;77.30;;;;;;5053445;28;20045;-87
2021/12/08 10:54:27;;;;;;;9.18;8.77;;;9.60;77.30;;;;;;5052853;28;20040;-86
2021/12/08 10:56:57;;;;;;;8.93;8.52;;;9.60;77.60;;;;;;5052257;28;20029;-86
2021/12/08 10:59:27;;;;;;;9.65;9.25;;;9.50;77.70;;;;;;5036148;28;20041;-87
2021/12/08 11:01:59;;;;;;;9.40;9.00;;;9.50;77.90;;;;;;5035634;28;20044;-86
2021/12/08 11:04:30;;;;;;;9.48;9.07;;;9.50;77.90;;;;;;5053037;28;20430;-86
2021/12/08 11:07:04;;;;;;;9.80;9.38;;;9.40;77.90;;;;;;5053019;28;20033;-87
2021/12/08 11:09:38;;;;;;;9.63;9.23;;;9.50;78.00;;;;;;5036033;28;20037;-87
2021/12/08 11:12:04;;;;;;;9.68;9.27;;;9.60;78.00;;;;;;5052836;28;20033;-87
2021/12/08 11:14:42;;;;;;;9.75;9.32;;;9.60;78.00;;;;;;5036096;28;20033;-87
2021/12/08 11:17:28;;;;;;;10.07;9.57;;;9.70;77.70;;;;;;5035052;28;20417;-88
2021/12/08 11:20:32;;;;;;;9.95;9.48;;;9.80;77.60;;;;;;5033052;28;20044;-87
2021/12/08 11:23:02;;;;;;;10.38;9.88;;;9.80;77.40;;;;;;4989834;28;20037;-86
2021/12/08 11:25:47;;;;;;;10.52;10.02;;;9.80;77.40;;;;;;4992105;28;20539;-87
2021/12/08 11:28:29;;;;;;;10.07;9.57;;;9.80;77.50;;;;;;4993026;28;20043;-87
2021/12/08 11:31:09;;;;;;;10.30;9.80;;;9.70;77.60;;;;;;4989117;28;20057;-85
2021/12/08 11:33:42;;;;;;;10.52;10.02;;;9.60;77.70;;;;;;4982926;28;20056;-86
2021/12/08 11:36:16;;;;;;;11.27;10.55;;;9.60;77.80;;;;;;4990115;28;20408;-85
2021/12/08 11:38:44;;;;;;;10.52;9.73;;;9.60;78.00;;;;;;4975813;28;20030;-84
2021/12/08 11:41:26;;;;;;;10.55;10.05;;;9.60;78.00;;;;;;4991454;28;20042;-82
2021/12/08 11:43:56;;;;;;;10.70;10.20;;;9.60;77.80;;;;;;4969338;28;20039;-86
2021/12/08 11:46:22;;;;;;;10.82;10.32;;;9.70;77.70;;;;;;4991189;28;20080;-84
2021/12/08 11:48:53;;;;;;;10.27;9.77;;;9.80;77.50;;;;;;4974759;28;20038;-83
2021/12/08 11:51:19;;;;;;;11.20;10.70;;;10.00;77.20;;;;;;4990085;28;20074;-85
2021/12/08 11:53:45;;;;;;;10.25;9.75;;;10.20;76.70;;;;;;4992479;28;20134;-85
2021/12/08 11:56:36;;;;;;;10.57;10.07;;;10.40;76.50;;;;;;4984753;28;20041;-85
2021/12/08 11:59:04;;;;;;;10.45;9.95;;;10.50;76.20;;;;;;5049336;28;20032;-84
2021/12/08 12:01:30;;;;;;;10.45;9.95;;;10.60;75.90;;;;;;5048966;28;20041;-86
2021/12/08 12:03:56;;;;;;;11.10;10.60;;;10.70;75.70;;;;;;5052345;28;20029;-85
2021/12/08 12:06:27;;;;;;;11.13;10.63;;;10.80;75.70;;;;;;5034143;28;20083;-85
2021/12/08 12:08:58;;;;;;;11.65;11.15;;;10.80;75.70;;;;;;5050265;28;20462;-85
2021/12/08 12:11:27;;;;;;;11.40;10.90;;;10.70;75.80;;;;;;5050538;28;20040;-82
2021/12/08 12:13:54;;;;;;;11.48;10.98;;;10.60;76.00;;;;;;5051933;28;20100;-85
2021/12/08 12:16:21;;;;;;;12.55;11.95;;;10.50;76.10;;;;;;5049953;28;20045;-83
2021/12/08 12:18:47;;;;;;;11.95;11.45;;;10.50;76.50;;;;;;5050591;28;20478;-83
2021/12/08 12:21:34;;;;;;;12.40;11.80;;;10.40;76.60;;;;;;5033545;28;20041;-82
2021/12/08 12:24:12;;;;;;;11.48;10.98;;;10.40;76.60;;;;;;5050712;28;20389;-81
2021/12/08 12:27:00;;;;;;;11.13;10.63;;;10.40;76.60;;;;;;5050813;28;20061;-82
2021/12/08 12:29:44;;;;;;;10.68;10.18;;;10.50;76.40;;;;;;5045692;28;20036;-81
2021/12/08 12:32:45;;;;;;;10.90;10.40;;;10.50;76.10;;;;;;5049359;28;20044;-84
2021/12/08 12:35:12;;;;;;;10.53;10.03;;;10.60;75.90;;;;;;5033098;28;20045;-83
2021/12/08 12:37:39;;;;;;;12.00;11.48;;;10.80;75.70;;;;;;5052429;28;20278;-82
2021/12/08 12:40:08;;;;;;;11.30;10.80;;;10.80;75.60;;;;;;5033303;28;20041;-83
2021/12/08 12:43:07;;;;;;;11.20;10.70;;;10.90;75.40;;;;;;5047290;28;20043;-80
2021/12/08 12:45:36;;;;;;;12.05;11.50;;;10.90;75.30;;;;;;5004045;28;20041;-80
2021/12/08 12:48:23;;;;;;;12.00;11.50;;;10.80;75.20;;;;;;4992667;28;20038;-80
2021/12/08 12:51:08;;;;;;;11.23;10.73;;;10.70;75.50;;;;;;4993108;28;20073;-82
2021/12/08 12:54:00;;;;;;;11.50;11.00;;;10.70;75.60;;;;;;5007574;28;20038;-84
2021/12/08 12:56:29;;;;;;;10.52;10.02;;;10.80;75.50;;;;;;5007236;28;20046;-81
2021/12/08 12:58:56;;;;;;;11.30;10.80;;;10.90;75.30;;;;;;4992941;28;20161;-84
2021/12/08 13:01:27;;;;;;;11.35;10.85;;;11.00;75.10;;;;;;4994047;28;20042;-83
2021/12/08 13:03:56;;;;;;;11.23;10.73;;;11.10;75.00;;;;;;4978466;28;20049;-84
2021/12/08 13:07:02;;;;;;;10.98;10.48;;;11.10;74.70;;;;;;4995671;28;20150;-85
2021/12/08 13:09:37;;;;;;;11.27;10.77;;;11.10;74.60;;;;;;4934752;29;20413;-85
2021/12/08 13:12:24;;;;;;;11.55;11.05;;;11.10;74.50;;;;;;4932583;29;20055;-84
2021/12/08 13:15:13;;;;;;;11.63;10.93;;;11.00;74.50;;;;;;4931740;29;20039;-84
2021/12/08 13:18:08;;;;;;;11.32;10.82;;;11.00;74.70;;;;;;4926362;29;20047;-84
2021/12/08 13:20:40;;;;;;;11.90;11.38;;;11.00;74.80;;;;;;4943734;28;20161;-84
2021/12/08 13:23:10;;;;;;;12.18;11.57;;;10.90;74.50;;;;;;4973731;28;20035;-84
2021/12/08 13:25:52;;;;;;;11.73;11.23;;;10.90;74.80;;;;;;4990388;28;20115;-85
2021/12/08 13:28:30;;;;;;;12.50;11.90;;;10.80;74.80;;;;;;4989841;28;20037;-85
2021/12/08 13:31:08;;;;;;;12.27;11.68;;;10.80;74.90;;;;;;4973270;28;20038;-84
2021/12/08 13:33:41;;;;;;;11.80;11.30;;;10.80;74.80;;;;;;4970587;28;20062;-85
2021/12/08 13:36:31;;;;;;;12.32;11.73;;;10.80;75.00;;;;;;4973138;28;20057;-84
2021/12/08 13:38:57;;;;;;;13.38;12.68;;;10.70;74.90;;;;;;4989808;28;20034;-84
2021/12/08 13:41:27;;;;;;;12.73;12.02;;;10.70;75.00;;;;;;4990064;28;20073;-85
2021/12/08 13:43:54;;;;;;;12.88;12.23;;;10.70;75.00;;;;;;5024815;28;20041;-85
2021/12/08 13:46:40;;;;;;;13.30;12.65;;;10.70;74.90;;;;;;5049453;28;20047;-85
2021/12/08 13:49:11;;;;;;;11.05;10.55;;;10.70;74.90;;;;;;5064955;28;20044;-84
2021/12/08 13:51:37;;;;;;;12.25;11.65;;;10.60;74.80;;;;;;5049426;28;20052;-84
2021/12/08 13:54:25;;;;;;;11.88;11.38;;;10.60;74.80;;;;;;5049530;28;20032;-84
2021/12/08 13:56:51;;;;;;;12.80;12.20;;;10.50;74.90;;;;;;5049627;28;20029;-85
2021/12/08 13:59:55;;;;;;;12.38;11.77;;;10.50;75.00;;;;;;5034156;28;20036;-84
2021/12/08 14:02:24;;;;;;;10.40;9.90;;;10.50;75.00;;;;;;5035190;28;20029;-84
2021/12/08 14:05:03;;;;;;;12.40;11.80;;;10.50;74.90;;;;;;5050018;28;20053;-84